Time;durP1;ratioP1;P1;durP2;ratioP2;P2;SDS_P1;SDS_P2;PMS_P1;PMS_P2;Temp;Humidity;BMP_temperature;BMP_pressure;BME280_temperature;BME280_humidity;BME280_pressure;Samples;Min_cycle;Max_cycle;Signal;HPM_P1;HPM_P2
2021/05/07 00:02:16;;;;;;;1.77;1.60;;;17.20;52.80;;;;;;5036878;28;20242;-73
2021/05/07 00:04:41;;;;;;;2.92;1.75;;;17.20;52.80;;;;;;5054858;28;20658;-67
2021/05/07 00:07:07;;;;;;;1.70;1.60;;;17.20;52.80;;;;;;5055443;28;20175;-73
2021/05/07 00:09:32;;;;;;;2.78;1.92;;;17.20;52.70;;;;;;5054199;28;20170;-74
2021/05/07 00:11:58;;;;;;;1.85;1.70;;;17.20;52.70;;;;;;5055075;28;20175;-67
2021/05/07 00:14:24;;;;;;;1.92;1.80;;;17.20;52.70;;;;;;5036854;28;20685;-73
2021/05/07 00:16:52;;;;;;;1.85;1.75;;;17.20;52.70;;;;;;5036525;28;20163;-67
2021/05/07 00:19:18;;;;;;;1.65;1.55;;;17.20;52.70;;;;;;5021255;28;20356;-66
2021/05/07 00:21:45;;;;;;;2.15;1.63;;;17.20;52.70;;;;;;5055035;28;20254;-72
2021/05/07 00:24:11;;;;;;;1.88;1.60;;;17.20;52.70;;;;;;5053990;28;20167;-67
2021/05/07 00:26:36;;;;;;;1.92;1.77;;;17.20;52.70;;;;;;5054442;28;20179;-73
2021/05/07 00:29:02;;;;;;;2.00;1.70;;;17.20;52.70;;;;;;5054916;28;20250;-74
2021/05/07 00:31:27;;;;;;;2.47;1.80;;;17.20;52.70;;;;;;5036284;28;20168;-66
2021/05/07 00:33:53;;;;;;;2.30;2.00;;;17.10;52.60;;;;;;5036856;28;20193;-71
2021/05/07 00:36:19;;;;;;;1.83;1.63;;;17.10;52.70;;;;;;5036063;28;20198;-65
2021/05/07 00:38:44;;;;;;;2.03;1.92;;;17.10;52.70;;;;;;5036763;28;20596;-67
2021/05/07 00:41:10;;;;;;;2.25;2.05;;;17.10;52.60;;;;;;5054589;28;20245;-72
2021/05/07 00:43:40;;;;;;;1.80;1.70;;;17.10;52.60;;;;;;5053517;28;20182;-67
2021/05/07 00:46:06;;;;;;;2.65;1.75;;;17.10;52.60;;;;;;5037064;28;20263;-74
2021/05/07 00:48:31;;;;;;;2.67;1.63;;;17.10;52.60;;;;;;5054129;28;20246;-73
2021/05/07 00:50:57;;;;;;;1.88;1.50;;;17.10;52.60;;;;;;5019636;28;20182;-68
2021/05/07 00:53:23;;;;;;;1.85;1.73;;;17.10;52.60;;;;;;5019852;28;20171;-75
2021/05/07 00:55:48;;;;;;;2.13;1.63;;;17.00;52.60;;;;;;5036290;28;20175;-67
2021/05/07 00:58:14;;;;;;;1.60;1.50;;;17.10;52.60;;;;;;5019454;28;20250;-71
2021/05/07 01:00:40;;;;;;;1.88;1.70;;;17.10;52.60;;;;;;5036072;28;20578;-73
2021/05/07 01:03:06;;;;;;;1.77;1.67;;;17.00;52.60;;;;;;5036415;28;20159;-74
2021/05/07 01:05:31;;;;;;;2.00;1.60;;;17.00;52.60;;;;;;5018847;28;20589;-74
2021/05/07 01:07:57;;;;;;;2.45;2.03;;;17.00;52.60;;;;;;5036359;28;20178;-72
2021/05/07 01:10:23;;;;;;;2.28;2.08;;;17.00;52.60;;;;;;5019456;28;20179;-74
2021/05/07 01:12:48;;;;;;;2.80;1.90;;;17.00;52.50;;;;;;5053673;28;20193;-72
2021/05/07 01:15:16;;;;;;;2.83;1.60;;;17.00;52.60;;;;;;5036093;28;20171;-74
2021/05/07 01:17:43;;;;;;;1.92;1.75;;;17.00;52.60;;;;;;5036256;28;20167;-67
2021/05/07 01:20:11;;;;;;;1.70;1.60;;;17.00;52.60;;;;;;5035294;28;20219;-66
2021/05/07 01:22:41;;;;;;;1.70;1.60;;;17.00;52.50;;;;;;5053579;28;20332;-76
2021/05/07 01:25:07;;;;;;;3.42;1.85;;;17.00;52.50;;;;;;5019890;28;20201;-74
2021/05/07 01:27:38;;;;;;;1.65;1.55;;;16.90;52.50;;;;;;5002209;28;20199;-67
2021/05/07 01:30:11;;;;;;;1.55;1.45;;;16.90;52.40;;;;;;5003114;28;20252;-75
2021/05/07 01:32:37;;;;;;;1.70;1.60;;;16.90;52.50;;;;;;5034945;28;20519;-70
2021/05/07 01:35:08;;;;;;;2.60;1.55;;;16.90;52.40;;;;;;5002870;28;20182;-73
2021/05/07 01:37:33;;;;;;;2.15;1.95;;;16.90;52.40;;;;;;5035561;28;20254;-74
2021/05/07 01:39:59;;;;;;;1.70;1.52;;;16.90;52.40;;;;;;5035196;28;20617;-66
2021/05/07 01:42:25;;;;;;;2.13;1.70;;;16.90;52.40;;;;;;5053216;28;20700;-66
2021/05/07 01:44:50;;;;;;;1.65;1.55;;;16.90;52.40;;;;;;5053172;28;20171;-66
2021/05/07 01:47:16;;;;;;;2.17;1.77;;;16.90;52.40;;;;;;5052732;28;20241;-73
2021/05/07 01:49:42;;;;;;;2.35;1.52;;;16.90;52.40;;;;;;5018559;28;20183;-67
2021/05/07 01:52:07;;;;;;;2.25;1.90;;;16.90;52.40;;;;;;5053284;28;20677;-73
2021/05/07 01:54:33;;;;;;;2.10;1.90;;;16.90;52.40;;;;;;5052186;28;20179;-75
2021/05/07 01:56:58;;;;;;;1.60;1.50;;;16.90;52.40;;;;;;5035398;28;20183;-66
2021/05/07 01:59:24;;;;;;;1.80;1.70;;;16.80;52.30;;;;;;5034982;28;20249;-76
2021/05/07 02:01:49;;;;;;;1.60;1.33;;;16.80;52.30;;;;;;5052339;28;20214;-73
2021/05/07 02:04:15;;;;;;;1.95;1.40;;;16.90;52.40;;;;;;5052927;28;20202;-76
2021/05/07 02:06:41;;;;;;;1.60;1.50;;;16.90;52.40;;;;;;5034972;28;20661;-66
2021/05/07 02:09:06;;;;;;;1.88;1.60;;;16.80;52.30;;;;;;5052511;28;20202;-73
2021/05/07 02:11:32;;;;;;;2.38;1.40;;;16.80;52.30;;;;;;5034801;28;20585;-74
2021/05/07 02:13:57;;;;;;;1.70;1.60;;;16.80;52.30;;;;;;5052716;28;20171;-67
2021/05/07 02:16:23;;;;;;;2.15;1.70;;;16.80;52.30;;;;;;5051516;28;20175;-68
2021/05/07 02:18:50;;;;;;;1.60;1.50;;;16.80;52.20;;;;;;5052547;28;20160;-76
2021/05/07 02:21:15;;;;;;;1.55;1.45;;;16.80;52.20;;;;;;5052813;28;20182;-75
2021/05/07 02:23:41;;;;;;;1.48;1.38;;;16.80;52.20;;;;;;5051947;28;20167;-73
2021/05/07 02:26:06;;;;;;;1.80;1.70;;;16.80;52.20;;;;;;5052665;28;20254;-74
2021/05/07 02:28:32;;;;;;;1.60;1.50;;;16.80;52.30;;;;;;5034675;28;20171;-67
2021/05/07 02:30:58;;;;;;;1.33;1.23;;;16.80;52.20;;;;;;5052003;28;20258;-68
2021/05/07 02:33:23;;;;;;;2.13;1.90;;;16.70;52.20;;;;;;5052503;28;20696;-73
2021/05/07 02:35:49;;;;;;;1.45;1.30;;;16.70;52.20;;;;;;5051933;28;20534;-64
2021/05/07 02:38:14;;;;;;;2.70;1.75;;;16.70;52.20;;;;;;5018471;28;20258;-73
2021/05/07 02:40:40;;;;;;;1.75;1.52;;;16.70;52.20;;;;;;5052292;28;20260;-73
2021/05/07 02:43:05;;;;;;;1.40;1.30;;;16.70;52.20;;;;;;5017817;28;20699;-74
2021/05/07 02:45:31;;;;;;;1.50;1.40;;;16.70;52.20;;;;;;5052225;28;20171;-76
2021/05/07 02:47:56;;;;;;;2.35;1.35;;;16.70;52.20;;;;;;5034687;28;20171;-76
2021/05/07 02:50:22;;;;;;;1.77;1.63;;;16.70;52.20;;;;;;5051699;28;20175;-74
2021/05/07 02:52:48;;;;;;;1.65;1.50;;;16.70;52.10;;;;;;5035018;28;20179;-73
2021/05/07 02:55:14;;;;;;;1.60;1.50;;;16.70;52.10;;;;;;5052479;28;20170;-73
2021/05/07 02:57:39;;;;;;;1.20;1.10;;;16.70;52.10;;;;;;5033905;28;20171;-67
2021/05/07 03:00:06;;;;;;;1.50;1.40;;;16.70;52.10;;;;;;5034738;28;20777;-73
2021/05/07 03:02:31;;;;;;;1.92;1.70;;;16.60;52.10;;;;;;5018098;28;20217;-74
2021/05/07 03:04:57;;;;;;;1.40;1.30;;;16.70;52.10;;;;;;5051784;28;20183;-74
2021/05/07 03:07:23;;;;;;;1.50;1.40;;;16.70;52.20;;;;;;5034608;28;20191;-75
2021/05/07 03:09:48;;;;;;;2.20;1.23;;;16.60;52.10;;;;;;5034644;28;20226;-71
2021/05/07 03:12:14;;;;;;;1.50;1.40;;;16.60;52.10;;;;;;5034041;28;20178;-74
2021/05/07 03:14:39;;;;;;;1.65;1.55;;;16.60;52.10;;;;;;5051968;28;20256;-74
2021/05/07 03:17:05;;;;;;;1.35;1.25;;;16.60;52.10;;;;;;5052428;28;20285;-77
2021/05/07 03:19:30;;;;;;;1.65;1.50;;;16.60;52.10;;;;;;5051099;28;20302;-74
2021/05/07 03:21:56;;;;;;;1.40;1.30;;;16.60;52.10;;;;;;5034413;28;20176;-65
2021/05/07 03:24:21;;;;;;;1.63;1.52;;;16.60;52.10;;;;;;5051829;28;20541;-77
2021/05/07 03:26:47;;;;;;;1.33;1.23;;;16.60;52.10;;;;;;5051687;28;20203;-66
2021/05/07 03:29:13;;;;;;;1.20;1.20;;;16.60;52.10;;;;;;5036459;28;20171;-76
2021/05/07 03:31:38;;;;;;;1.65;1.55;;;16.60;52.10;;;;;;5021185;28;20182;-68
2021/05/07 03:34:04;;;;;;;1.20;1.10;;;16.60;52.10;;;;;;5055043;28;20171;-64
2021/05/07 03:36:29;;;;;;;1.48;1.38;;;16.50;52.10;;;;;;5037614;28;20181;-71
2021/05/07 03:38:55;;;;;;;1.60;1.50;;;16.60;52.10;;;;;;5055738;28;20174;-65
2021/05/07 03:41:21;;;;;;;1.30;1.20;;;16.60;52.10;;;;;;5020555;28;20172;-71
2021/05/07 03:43:46;;;;;;;1.33;1.30;;;16.60;52.10;;;;;;5037906;28;20167;-65
2021/05/07 03:46:12;;;;;;;1.52;1.42;;;16.50;52.10;;;;;;5054946;28;20198;-75
2021/05/07 03:48:38;;;;;;;2.08;1.30;;;16.50;52.10;;;;;;5055000;28;20171;-69
2021/05/07 03:51:03;;;;;;;1.73;1.20;;;16.50;52.10;;;;;;5037660;28;20305;-74
2021/05/07 03:53:29;;;;;;;1.63;1.52;;;16.50;52.10;;;;;;5054645;28;20175;-67
2021/05/07 03:55:55;;;;;;;1.30;1.20;;;16.50;52.10;;;;;;5037477;28;20163;-72
2021/05/07 03:58:21;;;;;;;1.60;1.50;;;16.50;52.10;;;;;;5020980;28;20175;-68
2021/05/07 04:00:46;;;;;;;1.08;1.08;;;16.50;52.10;;;;;;5036774;28;20691;-69
2021/05/07 04:03:12;;;;;;;1.30;1.20;;;16.50;52.20;;;;;;5055324;28;20208;-75
2021/05/07 04:05:37;;;;;;;1.58;1.48;;;16.50;52.10;;;;;;5054743;28;20179;-68
2021/05/07 04:08:22;;;;;;;1.20;1.10;;;16.50;52.10;;;;;;5020259;28;20168;-66
2021/05/07 04:10:53;;;;;;;1.42;1.33;;;16.50;52.20;;;;;;5055336;28;20173;-66
2021/05/07 04:15:59;;;;;;;1.65;1.55;;;16.40;52.10;;;;;;5024295;28;20167;-67
2021/05/07 04:18:24;;;;;;;1.45;1.35;;;16.40;52.10;;;;;;5020368;28;20182;-73
2021/05/07 04:20:50;;;;;;;1.42;1.33;;;16.50;52.20;;;;;;5036865;28;20227;-72
2021/05/07 04:23:16;;;;;;;1.20;1.15;;;16.50;52.30;;;;;;5054229;28;20178;-75
2021/05/07 04:25:41;;;;;;;1.30;1.20;;;16.40;52.30;;;;;;5054493;28;20181;-75
2021/05/07 04:28:07;;;;;;;1.30;1.20;;;16.40;52.30;;;;;;5037022;28;20186;-73
2021/05/07 04:30:32;;;;;;;1.58;1.48;;;16.40;52.20;;;;;;5053915;28;20262;-73
2021/05/07 04:32:58;;;;;;;1.67;1.30;;;16.40;52.20;;;;;;5054618;28;20173;-72
2021/05/07 04:35:24;;;;;;;1.10;1.05;;;16.40;52.30;;;;;;5053786;28;20214;-73
2021/05/07 04:37:49;;;;;;;1.35;1.33;;;16.40;52.20;;;;;;5036699;28;20168;-65
2021/05/07 04:40:15;;;;;;;1.20;1.10;;;16.40;52.20;;;;;;5054185;28;20244;-74
2021/05/07 04:42:41;;;;;;;1.20;1.10;;;16.40;52.20;;;;;;5019385;28;20172;-70
2021/05/07 04:45:07;;;;;;;1.10;1.00;;;16.40;52.20;;;;;;5036662;28;20202;-73
2021/05/07 04:47:33;;;;;;;0.98;0.98;;;16.40;52.30;;;;;;5036346;28;20175;-73
2021/05/07 04:49:58;;;;;;;1.38;1.27;;;16.40;52.30;;;;;;5053695;28;20179;-74
2021/05/07 04:52:24;;;;;;;0.85;0.85;;;16.40;52.20;;;;;;5036344;28;20171;-76
2021/05/07 04:54:49;;;;;;;1.30;1.20;;;16.40;52.20;;;;;;5036380;28;20170;-68
2021/05/07 04:57:15;;;;;;;1.02;1.02;;;16.40;52.30;;;;;;5035827;28;20533;-67
2021/05/07 04:59:41;;;;;;;1.33;1.23;;;16.40;52.30;;;;;;5053795;28;20298;-75
2021/05/07 05:02:06;;;;;;;0.82;0.80;;;16.40;52.20;;;;;;5054204;28;20190;-73
2021/05/07 05:04:32;;;;;;;1.50;1.17;;;16.40;52.10;;;;;;5052991;28;20627;-67
2021/05/07 05:06:57;;;;;;;1.08;1.00;;;16.40;52.20;;;;;;5019782;28;20575;-75
2021/05/07 05:09:23;;;;;;;0.98;0.90;;;16.60;52.10;;;;;;5053792;28;20167;-66
2021/05/07 05:11:48;;;;;;;0.80;0.80;;;16.80;52.00;;;;;;5053269;28;20591;-70
2021/05/07 05:14:14;;;;;;;1.33;0.80;;;17.00;51.80;;;;;;5053812;28;20201;-74
2021/05/07 05:16:39;;;;;;;1.42;1.33;;;17.30;51.50;;;;;;5035817;28;20623;-67
2021/05/07 05:19:05;;;;;;;0.93;0.93;;;17.60;51.10;;;;;;5052813;28;20174;-67
2021/05/07 05:21:31;;;;;;;0.80;0.80;;;17.90;50.50;;;;;;5053458;28;20171;-76
2021/05/07 05:23:56;;;;;;;1.02;0.93;;;18.20;49.90;;;;;;5019490;28;20175;-67
2021/05/07 05:26:22;;;;;;;1.08;1.02;;;18.40;49.40;;;;;;5034982;28;20189;-75
2021/05/07 05:28:47;;;;;;;0.80;0.80;;;18.60;49.10;;;;;;5053640;28;20171;-68
2021/05/07 05:31:13;;;;;;;0.85;0.85;;;18.70;48.90;;;;;;5053667;28;20222;-75
2021/05/07 05:33:39;;;;;;;0.63;0.63;;;18.80;48.80;;;;;;5052624;28;20163;-72
2021/05/07 05:36:05;;;;;;;1.85;1.00;;;18.90;48.70;;;;;;5035646;28;20199;-72
2021/05/07 05:38:31;;;;;;;0.82;0.82;;;18.90;48.50;;;;;;5053010;28;20178;-73
2021/05/07 05:40:56;;;;;;;0.80;0.80;;;19.00;48.50;;;;;;5052618;28;20203;-73
2021/05/07 05:43:22;;;;;;;0.88;0.57;;;19.00;48.60;;;;;;5053128;28;20191;-76
2021/05/07 05:45:48;;;;;;;0.63;0.63;;;19.00;48.40;;;;;;5052501;28;20538;-70
2021/05/07 05:48:14;;;;;;;0.75;0.75;;;19.00;48.40;;;;;;5019258;28;20182;-76
2021/05/07 05:50:41;;;;;;;0.80;0.80;;;19.00;48.40;;;;;;5034668;28;20229;-76
2021/05/07 05:53:07;;;;;;;0.82;0.80;;;18.90;48.60;;;;;;5035000;28;20195;-76
2021/05/07 05:55:33;;;;;;;0.93;0.80;;;18.90;49.40;;;;;;5052793;28;20198;-74
2021/05/07 05:57:58;;;;;;;2.63;0.93;;;18.80;49.00;;;;;;5002505;28;20182;-63
2021/05/07 06:00:24;;;;;;;9.27;1.10;;;18.70;49.50;;;;;;5034382;28;20210;-67
2021/05/07 06:02:50;;;;;;;2.28;1.33;;;18.70;49.90;;;;;;5018338;28;20222;-60
2021/05/07 06:05:16;;;;;;;3.65;0.98;;;18.60;49.80;;;;;;5052807;28;20273;-68
2021/05/07 06:07:41;;;;;;;7.13;1.92;;;18.50;49.90;;;;;;5017724;28;20201;-64
2021/05/07 06:10:10;;;;;;;4.72;1.30;;;18.50;50.00;;;;;;5052435;28;20222;-68
2021/05/07 06:12:35;;;;;;;9.77;1.42;;;18.50;50.30;;;;;;5481224;23;20293;-63
2021/05/07 06:15:04;;;;;;;7.45;1.25;;;18.50;50.70;;;;;;5032301;28;20175;-62
2021/05/07 06:17:29;;;;;;;3.03;1.13;;;18.50;50.70;;;;;;5032676;28;20263;-61
2021/05/07 06:22:31;;;;;;;7.65;1.35;;;18.30;52.40;;;;;;5414631;22;20234;-60
2021/05/07 06:24:56;;;;;;;8.55;2.13;;;18.20;51.00;;;;;;4998363;28;20179;-67
2021/05/07 06:27:22;;;;;;;9.73;1.90;;;18.20;51.90;;;;;;5013318;28;20171;-69
2021/05/07 06:29:47;;;;;;;9.27;1.98;;;18.20;51.90;;;;;;4997111;28;20175;-64
2021/05/07 07:18:06;;;;;;;3.25;1.10;;;17.80;49.50;;;;;;5913875;22;20469;-64
2021/05/07 07:20:33;;;;;;;9.90;1.67;;;17.80;50.10;;;;;;5055374;28;20219;-63
2021/05/07 07:22:59;;;;;;;7.70;1.65;;;17.90;50.60;;;;;;5055004;28;20175;-64
2021/05/07 07:25:28;;;;;;;13.20;1.65;;;18.10;50.60;;;;;;5054476;28;20179;-65
2021/05/07 07:27:54;;;;;;;3.75;1.38;;;18.10;50.30;;;;;;5054824;28;20258;-69
2021/05/07 07:30:20;;;;;;;4.63;1.05;;;18.10;49.70;;;;;;5054183;28;20609;-62
2021/05/07 07:32:45;;;;;;;6.97;1.40;;;18.20;49.60;;;;;;5054226;28;20167;-63
2021/05/07 07:35:11;;;;;;;3.90;1.30;;;18.20;49.50;;;;;;5054783;28;20163;-70
2021/05/07 07:37:37;;;;;;;6.07;1.67;;;18.20;49.40;;;;;;5053804;28;20171;-73
2021/05/07 07:40:04;;;;;;;4.72;1.35;;;18.10;49.70;;;;;;5056201;28;20619;-71
2021/05/07 07:42:29;;;;;;;3.38;1.02;;;18.00;49.60;;;;;;5055897;28;20171;-71
2021/05/07 07:44:55;;;;;;;5.00;1.15;;;18.00;49.40;;;;;;5054609;28;20535;-71
2021/05/07 07:47:20;;;;;;;2.67;1.00;;;18.00;49.40;;;;;;5055602;28;20208;-68
2021/05/07 07:49:46;;;;;;;7.95;1.52;;;18.00;49.40;;;;;;5055629;28;20198;-71
2021/05/07 07:52:11;;;;;;;6.50;1.65;;;18.00;49.50;;;;;;5054996;28;20178;-67
2021/05/07 07:54:38;;;;;;;5.55;1.13;;;18.00;49.50;;;;;;5055375;28;20187;-67
2021/05/07 07:57:04;;;;;;;3.53;1.30;;;18.20;49.40;;;;;;5055586;28;20175;-67
2021/05/07 07:59:29;;;;;;;3.60;0.98;;;18.20;49.40;;;;;;5054698;28;20206;-67
2021/05/07 08:01:55;;;;;;;6.05;1.20;;;18.20;49.50;;;;;;5055259;28;20167;-68
2021/05/07 08:04:20;;;;;;;5.53;1.20;;;18.20;49.60;;;;;;5055167;28;20171;-66
2021/05/07 08:06:46;;;;;;;2.72;0.90;;;18.30;49.60;;;;;;5054709;28;20656;-69
2021/05/07 08:09:12;;;;;;;2.67;1.00;;;18.30;49.60;;;;;;5055624;28;20629;-66
2021/05/07 08:11:37;;;;;;;3.97;1.00;;;18.30;49.90;;;;;;5055582;28;20550;-72
2021/05/07 08:14:03;;;;;;;4.32;1.42;;;18.30;49.50;;;;;;5053773;28;20229;-72
2021/05/07 08:16:29;;;;;;;4.93;1.30;;;18.30;49.50;;;;;;5037461;28;20592;-72
2021/05/07 08:18:55;;;;;;;5.85;1.00;;;18.40;49.30;;;;;;5053765;28;20223;-72
2021/05/07 08:21:22;;;;;;;4.10;0.90;;;18.40;49.30;;;;;;5055285;28;20181;-72
2021/05/07 08:23:48;;;;;;;2.92;1.15;;;18.40;49.30;;;;;;5054565;28;20688;-72
2021/05/07 08:26:13;;;;;;;1.90;1.10;;;18.30;49.20;;;;;;5054309;28;20262;-72
2021/05/07 08:28:39;;;;;;;3.33;1.50;;;18.40;49.20;;;;;;5054661;28;20174;-70
2021/05/07 08:31:04;;;;;;;3.10;1.00;;;18.30;49.20;;;;;;5054741;28;20174;-71
2021/05/07 08:33:30;;;;;;;3.67;1.00;;;18.30;49.10;;;;;;5054030;28;20548;-72
2021/05/07 08:35:55;;;;;;;3.08;1.08;;;18.30;49.00;;;;;;5054644;28;20646;-72
2021/05/07 08:38:21;;;;;;;2.17;0.88;;;18.30;49.00;;;;;;5054728;28;20183;-72
2021/05/07 08:40:46;;;;;;;3.30;0.90;;;18.30;49.00;;;;;;5053855;28;20309;-72
2021/05/07 08:43:14;;;;;;;2.30;0.95;;;18.30;49.10;;;;;;5054816;28;20179;-72
2021/05/07 08:45:39;;;;;;;1.17;0.85;;;18.30;49.20;;;;;;5054382;28;20204;-72
2021/05/07 08:48:05;;;;;;;1.77;1.05;;;18.30;49.10;;;;;;5053726;28;20636;-71
2021/05/07 08:50:31;;;;;;;9.00;1.80;;;18.30;48.90;;;;;;5054582;28;20183;-65
2021/05/07 08:52:56;;;;;;;2.15;1.05;;;18.30;48.40;;;;;;5036498;28;20179;-68
2021/05/07 08:55:22;;;;;;;2.00;1.00;;;18.40;48.20;;;;;;5053824;28;20171;-68
2021/05/07 08:57:47;;;;;;;1.90;1.10;;;18.30;48.20;;;;;;5054140;28;20171;-68
2021/05/07 09:00:14;;;;;;;1.90;0.95;;;18.20;48.60;;;;;;5054174;28;20206;-69
2021/05/07 09:02:39;;;;;;;1.85;1.17;;;18.30;48.70;;;;;;5053131;28;20167;-66
2021/05/07 09:05:05;;;;;;;1.08;0.70;;;18.40;48.60;;;;;;5054355;28;20262;-76
2021/05/07 09:07:31;;;;;;;4.43;0.90;;;18.30;48.80;;;;;;5054092;28;20299;-70
2021/05/07 09:09:58;;;;;;;0.80;0.80;;;18.30;49.00;;;;;;5053499;28;20171;-70
2021/05/07 09:12:38;;;;;;;0.90;0.80;;;18.30;49.00;;;;;;5054179;28;20179;-69
2021/05/07 09:15:05;;;;;;;1.80;0.80;;;18.30;49.00;;;;;;5053246;28;20182;-70
2021/05/07 09:17:31;;;;;;;1.42;0.80;;;18.40;48.90;;;;;;5052863;28;20726;-69
2021/05/07 09:20:03;;;;;;;2.30;1.10;;;18.50;48.80;;;;;;5053831;28;20225;-71
2021/05/07 09:22:29;;;;;;;1.00;0.60;;;18.50;48.70;;;;;;5053261;28;20532;-70
2021/05/07 09:25:27;;;;;;;3.53;0.85;;;18.40;48.80;;;;;;5053608;28;20635;-70
2021/05/07 09:27:54;;;;;;;1.15;0.90;;;18.40;48.70;;;;;;5008934;28;20190;-70
2021/05/07 09:30:25;;;;;;;2.58;0.85;;;18.40;48.80;;;;;;5035585;28;20579;-71
2021/05/07 09:32:51;;;;;;;1.63;0.70;;;18.30;48.90;;;;;;5053665;28;20579;-70
2021/05/07 09:35:17;;;;;;;0.93;0.70;;;18.20;49.00;;;;;;5053486;28;20521;-70
2021/05/07 09:37:44;;;;;;;1.33;0.73;;;18.30;48.90;;;;;;5052507;28;20178;-71
2021/05/07 09:40:27;;;;;;;1.88;0.80;;;18.40;48.80;;;;;;5053253;28;20368;-62
2021/05/07 09:43:13;;;;;;;0.85;0.75;;;18.30;49.00;;;;;;5053424;28;20171;-72
2021/05/07 09:45:40;;;;;;;1.83;0.70;;;18.20;49.00;;;;;;5053330;28;20226;-65
2021/05/07 09:48:19;;;;;;;2.47;1.00;;;18.20;49.10;;;;;;5053192;28;20211;-65
2021/05/07 09:50:44;;;;;;;3.22;1.20;;;18.20;48.80;;;;;;5052274;28;20179;-66
2021/05/07 09:53:12;;;;;;;2.22;1.08;;;18.20;48.30;;;;;;5053379;28;20182;-69
2021/05/07 09:55:38;;;;;;;2.20;0.70;;;18.30;48.10;;;;;;5052920;28;20190;-70
2021/05/07 09:58:04;;;;;;;1.90;1.02;;;18.30;48.10;;;;;;5052379;28;20175;-71
2021/05/07 10:00:30;;;;;;;2.55;1.10;;;18.20;48.40;;;;;;5053294;28;20199;-68
2021/05/07 10:02:55;;;;;;;2.15;0.93;;;18.20;48.40;;;;;;5052633;28;20190;-68
2021/05/07 10:05:23;;;;;;;1.90;0.95;;;18.10;47.70;;;;;;5052026;28;20587;-66
2021/05/07 10:07:49;;;;;;;1.95;1.23;;;18.10;47.40;;;;;;5052185;28;20179;-76
2021/05/07 10:10:14;;;;;;;3.58;1.10;;;18.20;47.50;;;;;;5052651;28;20181;-69
2021/05/07 10:12:41;;;;;;;4.95;1.15;;;18.30;47.10;;;;;;5052118;28;20179;-68
2021/05/07 10:15:07;;;;;;;2.15;1.08;;;18.20;47.00;;;;;;5034728;28;20199;-68
2021/05/07 10:17:32;;;;;;;4.75;1.48;;;18.10;46.50;;;;;;5052623;28;20202;-67
2021/05/07 10:19:58;;;;;;;2.40;1.00;;;18.10;45.70;;;;;;5034061;28;20649;-68
2021/05/07 10:22:36;;;;;;;5.03;1.10;;;18.10;45.70;;;;;;5053072;28;20202;-68
2021/05/07 10:25:12;;;;;;;5.32;1.30;;;18.10;46.00;;;;;;5051749;28;20171;-67
2021/05/07 10:27:46;;;;;;;4.28;1.65;;;18.20;46.10;;;;;;5051368;28;20710;-64
2021/05/07 10:30:30;;;;;;;3.88;1.00;;;18.20;46.20;;;;;;5052317;28;20662;-66
2021/05/07 10:33:23;;;;;;;4.13;1.42;;;18.10;46.60;;;;;;5050704;28;20174;-66
2021/05/07 10:35:54;;;;;;;6.03;1.05;;;18.20;46.70;;;;;;5048886;28;20209;-65
2021/05/07 10:38:20;;;;;;;2.58;1.10;;;18.20;46.90;;;;;;5055190;28;20542;-73
2021/05/07 10:40:49;;;;;;;3.17;1.10;;;18.10;47.00;;;;;;5055746;28;20214;-73
2021/05/07 10:43:15;;;;;;;2.17;0.80;;;18.20;47.10;;;;;;5056852;28;20174;-74
2021/05/07 10:45:48;;;;;;;2.38;0.93;;;18.30;46.90;;;;;;5056476;28;20186;-74
2021/05/07 10:48:21;;;;;;;4.63;0.95;;;18.20;47.00;;;;;;5056109;28;20206;-74
2021/05/07 10:50:49;;;;;;;7.07;1.05;;;18.20;47.40;;;;;;5056311;28;20171;-73
2021/05/07 10:53:32;;;;;;;1.35;1.13;;;18.20;47.60;;;;;;5056610;28;20293;-70
2021/05/07 10:55:58;;;;;;;4.35;0.95;;;18.20;47.70;;;;;;5055798;28;20732;-75
2021/05/07 10:58:36;;;;;;;3.92;0.95;;;18.20;48.10;;;;;;5056060;28;20254;-69
2021/05/07 11:01:21;;;;;;;3.63;0.90;;;18.40;48.20;;;;;;5055009;28;20265;-66
2021/05/07 11:03:58;;;;;;;4.22;1.30;;;18.30;48.10;;;;;;5055834;28;20563;-68
2021/05/07 11:06:35;;;;;;;3.75;1.00;;;18.20;48.20;;;;;;5056385;28;20183;-74
2021/05/07 11:09:14;;;;;;;5.70;1.10;;;18.30;48.10;;;;;;5055539;28;20182;-64
2021/05/07 11:11:40;;;;;;;6.68;0.73;;;18.20;48.00;;;;;;5055976;28;20178;-71
2021/05/07 11:14:10;;;;;;;0.95;0.70;;;18.20;48.00;;;;;;5056093;28;20689;-66
2021/05/07 11:16:37;;;;;;;7.43;1.08;;;18.10;48.00;;;;;;5054917;28;20211;-69
2021/05/07 11:19:02;;;;;;;3.30;0.75;;;18.10;48.00;;;;;;5055398;28;20215;-66
2021/05/07 11:21:28;;;;;;;3.63;0.93;;;18.20;48.00;;;;;;5055828;28;20183;-67
2021/05/07 11:23:53;;;;;;;2.72;0.90;;;18.30;47.90;;;;;;5037174;28;20698;-69
2021/05/07 11:26:19;;;;;;;5.65;1.10;;;18.30;47.70;;;;;;5038137;28;20175;-68
2021/05/07 11:28:47;;;;;;;2.88;0.80;;;18.40;47.80;;;;;;5036957;28;20167;-67
2021/05/07 11:31:13;;;;;;;1.30;0.80;;;18.40;47.70;;;;;;5037929;28;20203;-68
2021/05/07 11:33:42;;;;;;;1.83;0.80;;;18.40;47.70;;;;;;5055616;28;20198;-68
2021/05/07 11:36:09;;;;;;;4.97;0.80;;;18.40;47.70;;;;;;5055057;28;20180;-70
2021/05/07 11:38:35;;;;;;;1.25;0.80;;;18.50;47.80;;;;;;5055394;28;20183;-70
2021/05/07 11:41:01;;;;;;;1.02;0.80;;;18.40;47.80;;;;;;5055577;28;20226;-68
2021/05/07 11:43:30;;;;;;;4.25;1.08;;;18.30;48.10;;;;;;5055206;28;20637;-69
2021/05/07 11:46:05;;;;;;;1.95;0.80;;;18.20;48.20;;;;;;5055541;28;20183;-69
2021/05/07 11:48:31;;;;;;;3.80;0.80;;;18.20;48.40;;;;;;5054146;28;20186;-69
2021/05/07 11:50:56;;;;;;;2.00;0.70;;;18.20;48.30;;;;;;5036318;28;20167;-68
2021/05/07 11:53:22;;;;;;;2.35;0.88;;;18.40;48.20;;;;;;5055142;28;20171;-68
2021/05/07 11:55:47;;;;;;;2.70;0.82;;;18.30;48.10;;;;;;5055012;28;20179;-68
2021/05/07 11:58:13;;;;;;;1.35;0.80;;;18.30;48.10;;;;;;5054758;28;20186;-68
2021/05/07 12:00:39;;;;;;;0.88;0.68;;;18.20;48.30;;;;;;5054051;28;20260;-69
2021/05/07 12:03:05;;;;;;;4.18;0.90;;;18.30;48.20;;;;;;5055134;28;20664;-69
2021/05/07 12:05:38;;;;;;;0.98;0.60;;;18.40;48.00;;;;;;5054168;28;20641;-69
2021/05/07 12:08:04;;;;;;;1.40;0.70;;;18.50;47.80;;;;;;5055134;28;20175;-72
2021/05/07 12:10:30;;;;;;;3.70;0.88;;;18.50;47.70;;;;;;5055163;28;20241;-63
2021/05/07 12:12:58;;;;;;;4.45;1.05;;;18.50;48.10;;;;;;5054467;28;20175;-67
2021/05/07 12:15:28;;;;;;;5.10;1.10;;;18.50;48.50;;;;;;5055211;28;20236;-68
2021/05/07 12:17:53;;;;;;;0.95;0.65;;;18.40;48.80;;;;;;5054088;28;20656;-69
2021/05/07 12:20:20;;;;;;;3.67;0.90;;;18.50;49.00;;;;;;5054861;28;20238;-67
2021/05/07 12:22:48;;;;;;;1.45;0.77;;;18.60;48.80;;;;;;5054503;28;20225;-67
2021/05/07 12:25:15;;;;;;;3.10;0.85;;;18.70;49.50;;;;;;5054186;28;20186;-67
2021/05/07 12:27:40;;;;;;;3.03;0.85;;;18.80;48.80;;;;;;5054688;28;20254;-67
2021/05/07 12:30:26;;;;;;;2.78;0.75;;;18.90;48.90;;;;;;5054713;28;20612;-67
2021/05/07 12:32:54;;;;;;;2.03;0.70;;;18.90;48.90;;;;;;5053676;28;20186;-67
2021/05/07 12:35:20;;;;;;;2.10;0.80;;;18.90;49.00;;;;;;5054748;28;20178;-68
2021/05/07 12:37:46;;;;;;;6.40;0.98;;;18.70;49.30;;;;;;5054591;28;20171;-67
2021/05/07 12:40:11;;;;;;;4.10;1.00;;;18.70;49.50;;;;;;5054145;28;20234;-69
2021/05/07 12:42:37;;;;;;;4.30;0.98;;;18.60;49.70;;;;;;5054379;28;20197;-72
2021/05/07 12:45:03;;;;;;;4.32;0.88;;;18.70;49.60;;;;;;5054498;28;20655;-72
2021/05/07 12:47:28;;;;;;;2.50;0.65;;;18.70;49.70;;;;;;5053590;28;20175;-71
2021/05/07 12:49:54;;;;;;;3.65;0.60;;;18.70;49.70;;;;;;5054231;28;20181;-70
2021/05/07 12:52:19;;;;;;;3.22;0.95;;;18.70;49.50;;;;;;5054399;28;20179;-70
2021/05/07 12:54:45;;;;;;;2.65;0.60;;;18.60;49.90;;;;;;5053547;28;20167;-70
2021/05/07 12:57:10;;;;;;;3.63;0.88;;;18.60;49.90;;;;;;5054635;28;20177;-68
2021/05/07 12:59:36;;;;;;;4.50;0.88;;;18.50;50.00;;;;;;5053706;28;20206;-65
2021/05/07 13:02:03;;;;;;;5.75;1.00;;;18.50;50.20;;;;;;5053125;28;20206;-67
2021/05/07 13:04:28;;;;;;;4.72;1.02;;;18.50;50.20;;;;;;5054088;28;20543;-66
2021/05/07 13:06:54;;;;;;;5.03;0.95;;;18.50;50.20;;;;;;5053924;28;20655;-66
2021/05/07 13:09:19;;;;;;;2.88;0.88;;;18.60;50.00;;;;;;5053507;28;20176;-66
2021/05/07 13:11:45;;;;;;;1.60;0.73;;;18.50;50.00;;;;;;5053757;28;20175;-65
2021/05/07 13:14:11;;;;;;;1.13;0.65;;;18.40;50.10;;;;;;5053401;28;20212;-65
2021/05/07 13:16:36;;;;;;;1.67;0.70;;;18.40;50.20;;;;;;5053728;28;20167;-66
2021/05/07 13:19:02;;;;;;;2.22;0.73;;;18.40;50.00;;;;;;5052054;28;20668;-66
2021/05/07 13:21:27;;;;;;;1.90;1.08;;;18.30;50.10;;;;;;5053106;28;20766;-66
2021/05/07 13:23:53;;;;;;;5.65;0.82;;;18.30;50.10;;;;;;5053625;28;20625;-66
2021/05/07 13:26:18;;;;;;;2.17;0.80;;;18.30;50.20;;;;;;5053274;28;20625;-66
2021/05/07 13:28:44;;;;;;;3.58;1.10;;;18.50;49.90;;;;;;5052610;28;20178;-66
2021/05/07 13:31:09;;;;;;;3.50;0.70;;;18.60;49.60;;;;;;5053862;28;20177;-66
2021/05/07 13:33:35;;;;;;;1.55;0.60;;;18.70;49.50;;;;;;5053214;28;20171;-66
2021/05/07 13:36:00;;;;;;;2.83;0.73;;;18.70;49.60;;;;;;5052893;28;20178;-66
2021/05/07 13:38:26;;;;;;;2.33;0.90;;;18.60;49.60;;;;;;5053479;28;20498;-66